Time,TemperatureF,DewpointF,PressureIn,WindDirection,WindDirectionDegrees,WindSpeedMPH,WindSpeedGustMPH,Humidity,HourlyPrecipIn,Conditions,Clouds,dailyrainin,SoftwareType,DateUTC
2014-01-25 00:11:00,33.7,26.0,29.59,WNW,288,13.0,24.0,74,0.00,,,0.00,weatherlink.com 1.10,2014-01-25 06:11:00,
2014-01-25 00:27:00,33.4,25.0,29.60,NW,317,13.0,24.0,72,0.00,,,0.00,weatherlink.com 1.10,2014-01-25 06:27:00,
2014-01-25 00:42:00,32.6,22.0,29.60,WNW,283,13.0,27.0,65,0.00,,,0.00,weatherlink.com 1.10,2014-01-25 06:42:00,
2014-01-25 00:57:00,31.9,21.0,29.60,West,269,9.0,19.0,65,0.00,,,0.00,weatherlink.com 1.10,2014-01-25 06:57:00,
2014-01-25 01:12:00,31.7,21.0,29.61,WNW,298,11.0,20.0,66,0.00,,,0.00,weatherlink.com 1.10,2014-01-25 07:12:00,
2014-01-25 01:27:00,31.6,22.0,29.61,NNW,337,18.0,25.0,69,0.00,,,0.00,weatherlink.com 1.10,2014-01-25 07:27:00,
2014-01-25 01:42:00,31.2,22.0,29.61,NW,323,9.0,25.0,70,0.00,,,0.00,weatherlink.com 1.10,2014-01-25 07:42:00,
2014-01-25 01:57:00,30.8,22.0,29.62,West,279,7.0,23.0,71,0.00,,,0.00,weatherlink.com 1.10,2014-01-25 07:57:00,
2014-01-25 02:12:00,30.3,22.0,29.62,NW,309,7.0,19.0,70,0.00,,,0.00,weatherlink.com 1.10,2014-01-25 08:12:00,
2014-01-25 02:27:00,29.8,21.0,29.63,WNW,290,10.0,24.0,70,0.00,,,0.00,weatherlink.com 1.10,2014-01-25 08:27:00,
2014-01-25 02:42:00,29.2,20.0,29.63,NW,306,14.0,23.0,69,0.00,,,0.00,weatherlink.com 1.10,2014-01-25 08:42:00,
2014-01-25 02:57:00,27.8,19.0,29.64,WNW,301,9.0,22.0,69,0.00,,,0.00,weatherlink.com 1.10,2014-01-25 08:57:00,
2014-01-25 03:12:00,27.1,18.0,29.66,SW,231,5.0,24.0,69,0.00,,,0.00,weatherlink.com 1.10,2014-01-25 09:12:00,
2014-01-25 03:27:00,26.7,18.0,29.66,WNW,285,5.0,19.0,69,0.00,,,0.00,weatherlink.com 1.10,2014-01-25 09:27:00,
2014-01-25 03:43:00,25.7,15.0,29.67,West,279,18.0,28.0,63,0.00,,,0.00,weatherlink.com 1.10,2014-01-25 09:43:00,
2014-01-25 03:57:00,24.6,13.0,29.68,WSW,239,11.0,23.0,61,0.00,,,0.00,weatherlink.com 1.10,2014-01-25 09:57:00,
2014-01-25 04:12:00,22.0,4.0,29.70,West,269,19.0,31.0,46,0.00,,,0.00,weatherlink.com 1.10,2014-01-25 10:12:00,
2014-01-25 04:27:00,20.7,0.0,29.72,West,277,13.0,33.0,41,0.00,,,0.00,weatherlink.com 1.10,2014-01-25 10:27:00,
2014-01-25 04:42:00,19.5,-1.0,29.73,NW,311,22.0,32.0,41,0.00,,,0.00,weatherlink.com 1.10,2014-01-25 10:42:00,
2014-01-25 04:58:00,18.8,-1.0,29.75,West,270,13.0,25.0,42,0.00,,,0.00,weatherlink.com 1.10,2014-01-25 10:58:00,
2014-01-25 05:13:00,17.9,-2.0,29.75,WNW,296,9.0,25.0,42,0.00,,,0.00,weatherlink.com 1.10,2014-01-25 11:13:00,
2014-01-25 05:28:00,17.4,-2.0,29.76,West,281,10.0,23.0,42,0.00,,,0.00,weatherlink.com 1.10,2014-01-25 11:28:00,
2014-01-25 05:43:00,16.2,-3.0,29.78,North,349,12.0,27.0,43,0.00,,,0.00,weatherlink.com 1.10,2014-01-25 11:43:00,
2014-01-25 05:58:00,14.3,-6.0,29.79,West,269,12.0,30.0,40,0.00,,,0.00,weatherlink.com 1.10,2014-01-25 11:58:00,
2014-01-25 06:13:00,13.4,-5.0,29.80,NE,43,9.0,25.0,43,0.00,,,0.00,weatherlink.com 1.10,2014-01-25 12:13:00,
2014-01-25 06:28:00,12.8,-5.0,29.81,West,279,15.0,26.0,44,0.00,,,0.00,weatherlink.com 1.10,2014-01-25 12:28:00,
2014-01-25 06:43:00,11.3,-6.0,29.83,West,271,12.0,30.0,45,0.00,,,0.00,weatherlink.com 1.10,2014-01-25 12:43:00,
2014-01-25 06:58:00,10.7,-6.0,29.84,West,280,14.0,27.0,46,0.00,,,0.00,weatherlink.com 1.10,2014-01-25 12:58:00,
2014-01-25 07:13:00,10.2,-7.0,29.85,WNW,302,12.0,21.0,46,0.00,,,0.00,weatherlink.com 1.10,2014-01-25 13:13:00,
2014-01-25 07:28:00,9.8,-7.0,29.86,NW,315,7.0,27.0,47,0.00,,,0.00,weatherlink.com 1.10,2014-01-25 13:28:00,
2014-01-25 07:43:00,9.2,-7.0,29.87,WNW,302,11.0,21.0,49,0.00,,,0.00,weatherlink.com 1.10,2014-01-25 13:43:00,
2014-01-25 07:58:00,9.0,-7.0,29.88,NNE,26,10.0,26.0,49,0.00,,,0.00,weatherlink.com 1.10,2014-01-25 13:58:00,
2014-01-25 08:14:00,8.7,-7.0,29.89,WNW,302,6.0,22.0,49,0.00,,,0.00,weatherlink.com 1.10,2014-01-25 14:14:00,
2014-01-25 08:29:00,8.6,-7.0,29.90,West,261,8.0,22.0,49,0.00,,,0.00,weatherlink.com 1.10,2014-01-25 14:29:00,
2014-01-25 08:44:00,8.5,-7.0,29.91,NW,316,19.0,29.0,50,0.00,,,0.00,weatherlink.com 1.10,2014-01-25 14:44:00,
2014-01-25 08:59:00,8.6,-7.0,29.91,NNW,338,7.0,23.0,50,0.00,,,0.00,weatherlink.com 1.10,2014-01-25 14:59:00,
2014-01-25 09:14:00,8.7,-7.0,29.92,West,273,14.0,25.0,49,0.00,,,0.00,weatherlink.com 1.10,2014-01-25 15:14:00,
2014-01-25 09:29:00,8.5,-7.0,29.93,NW,324,6.0,31.0,49,0.00,,,0.00,weatherlink.com 1.10,2014-01-25 15:29:00,
2014-01-25 09:44:00,8.7,-7.0,29.93,NW,325,14.0,23.0,50,0.00,,,0.00,weatherlink.com 1.10,2014-01-25 15:44:00,
2014-01-25 09:59:00,8.9,-6.0,29.93,NW,306,18.0,24.0,50,0.00,,,0.00,weatherlink.com 1.10,2014-01-25 15:59:00,
2014-01-25 10:14:00,9.1,-6.0,29.94,WNW,298,10.0,22.0,51,0.00,,,0.00,weatherlink.com 1.10,2014-01-25 16:14:00,
2014-01-25 10:29:00,9.1,-6.0,29.95,WNW,294,12.0,23.0,51,0.00,,,0.00,weatherlink.com 1.10,2014-01-25 16:29:00,
2014-01-25 10:44:00,8.6,-6.0,29.96,West,267,15.0,27.0,52,0.00,,,0.00,weatherlink.com 1.10,2014-01-25 16:44:00,
2014-01-25 10:59:00,8.7,-6.0,29.96,WNW,294,19.0,25.0,52,0.00,,,0.00,weatherlink.com 1.10,2014-01-25 16:59:00,
2014-01-25 11:14:00,9.0,-6.0,29.96,West,281,9.0,24.0,51,0.00,,,0.00,weatherlink.com 1.10,2014-01-25 17:14:00,
2014-01-25 11:29:00,9.0,-6.0,29.96,West,270,16.0,26.0,51,0.00,,,0.00,weatherlink.com 1.10,2014-01-25 17:29:00,
2014-01-25 11:45:00,9.4,-6.0,29.96,NW,307,11.0,24.0,51,0.00,,,0.00,weatherlink.com 1.10,2014-01-25 17:45:00,
2014-01-25 12:00:00,9.7,-6.0,29.95,WNW,299,12.0,28.0,49,0.00,,,0.00,weatherlink.com 1.10,2014-01-25 18:00:00,
2014-01-25 12:15:00,9.8,-6.0,29.96,SW,226,6.0,26.0,49,0.00,,,0.00,weatherlink.com 1.10,2014-01-25 18:15:00,
2014-01-25 12:30:00,10.0,-6.0,29.95,West,261,6.0,22.0,49,0.00,,,0.00,weatherlink.com 1.10,2014-01-25 18:30:00,
2014-01-25 12:45:00,10.8,-5.0,29.95,West,277,22.0,25.0,50,0.00,,,0.00,weatherlink.com 1.10,2014-01-25 18:45:00,
2014-01-25 13:00:00,10.2,-6.0,29.95,West,259,11.0,31.0,48,0.00,,,0.00,weatherlink.com 1.10,2014-01-25 19:00:00,
2014-01-25 13:15:00,11.2,-5.0,29.95,West,270,8.0,16.0,49,0.00,,,0.00,weatherlink.com 1.10,2014-01-25 19:15:00,
2014-01-25 13:30:00,11.0,-5.0,29.95,SW,229,10.0,16.0,49,0.00,,,0.00,weatherlink.com 1.10,2014-01-25 19:30:00,
2014-01-25 13:45:00,10.1,-4.0,29.95,WSW,258,11.0,23.0,52,0.00,,,0.00,weatherlink.com 1.10,2014-01-25 19:45:00,
2014-01-25 14:00:00,10.2,-5.0,29.95,West,275,14.0,22.0,51,0.00,,,0.00,weatherlink.com 1.10,2014-01-25 20:00:00,
2014-01-25 14:15:00,10.4,-5.0,29.95,West,281,10.0,19.0,50,0.00,,,0.00,weatherlink.com 1.10,2014-01-25 20:15:00,
2014-01-25 14:30:00,10.4,-5.0,29.95,West,269,8.0,21.0,49,0.00,,,0.00,weatherlink.com 1.10,2014-01-25 20:30:00,
2014-01-25 14:45:00,10.6,-4.0,29.96,West,263,11.0,19.0,51,0.00,,,0.00,weatherlink.com 1.10,2014-01-25 20:45:00,
2014-01-25 15:01:00,10.4,-5.0,29.96,SW,233,15.0,23.0,51,0.00,,,0.00,weatherlink.com 1.10,2014-01-25 21:01:00,
2014-01-25 15:16:00,10.0,-5.0,29.96,West,259,10.0,27.0,51,0.00,,,0.00,weatherlink.com 1.10,2014-01-25 21:16:00,
2014-01-25 15:31:00,9.9,-5.0,29.96,West,274,10.0,20.0,52,0.00,,,0.00,weatherlink.com 1.10,2014-01-25 21:31:00,
2014-01-25 15:46:00,9.8,-5.0,29.97,West,270,11.0,22.0,52,0.00,,,0.00,weatherlink.com 1.10,2014-01-25 21:46:00,
2014-01-25 16:01:00,9.8,-5.0,29.97,WSW,248,7.0,18.0,52,0.00,,,0.00,weatherlink.com 1.10,2014-01-25 22:01:00,
2014-01-25 16:17:00,9.4,-5.0,29.98,WSW,242,15.0,19.0,52,0.00,,,0.00,weatherlink.com 1.10,2014-01-25 22:17:00,
2014-01-25 16:31:00,9.2,-5.0,29.98,West,267,10.0,15.0,52,0.00,,,0.00,weatherlink.com 1.10,2014-01-25 22:31:00,
2014-01-25 16:46:00,8.8,-5.0,29.99,WSW,244,10.0,14.0,54,0.00,,,0.00,weatherlink.com 1.10,2014-01-25 22:46:00,
2014-01-25 17:01:00,8.0,-5.0,29.99,West,261,8.0,15.0,56,0.00,,,0.00,weatherlink.com 1.10,2014-01-25 23:01:00,
2014-01-25 17:16:00,7.3,-6.0,30.00,SW,236,10.0,18.0,56,0.00,,,0.00,weatherlink.com 1.10,2014-01-25 23:16:00,
2014-01-25 17:31:00,7.1,-6.0,30.00,WSW,244,7.0,16.0,56,0.00,,,0.00,weatherlink.com 1.10,2014-01-25 23:31:00,
2014-01-25 17:46:00,7.1,-6.0,30.00,West,267,7.0,15.0,56,0.00,,,0.00,weatherlink.com 1.10,2014-01-25 23:46:00,
2014-01-25 18:01:00,7.1,-6.0,30.00,WSW,242,4.0,14.0,56,0.00,,,0.00,weatherlink.com 1.10,2014-01-26 00:01:00,
2014-01-25 18:16:00,7.0,-6.0,30.00,West,263,2.0,9.0,56,0.00,,,0.00,weatherlink.com 1.10,2014-01-26 00:16:00,
2014-01-25 18:32:00,7.0,-6.0,29.99,WSW,248,6.0,11.0,56,0.00,,,0.00,weatherlink.com 1.10,2014-01-26 00:32:00,
2014-01-25 18:47:00,6.8,-6.0,30.00,WSW,246,6.0,11.0,57,0.00,,,0.00,weatherlink.com 1.10,2014-01-26 00:47:00,
2014-01-25 19:02:00,6.8,-6.0,29.99,WSW,248,7.0,9.0,57,0.00,,,0.00,weatherlink.com 1.10,2014-01-26 01:02:00,
2014-01-25 19:17:00,6.9,-6.0,29.98,WSW,247,0.0,6.0,57,0.00,,,0.00,weatherlink.com 1.10,2014-01-26 01:17:00,
2014-01-25 19:32:00,6.9,-6.0,29.97,WSW,243,0.0,8.0,57,0.00,,,0.00,weatherlink.com 1.10,2014-01-26 01:32:00,
2014-01-25 19:47:00,7.0,-5.0,29.97,WSW,243,0.0,7.0,59,0.00,,,0.00,weatherlink.com 1.10,2014-01-26 01:47:00,
2014-01-25 20:02:00,6.8,-5.0,29.96,WSW,243,5.0,7.0,59,0.00,,,0.00,weatherlink.com 1.10,2014-01-26 02:02:00,
2014-01-25 20:17:00,6.8,-5.0,29.95,WSW,243,0.0,6.0,59,0.00,,,0.00,weatherlink.com 1.10,2014-01-26 02:17:00,
2014-01-25 20:32:00,7.0,-5.0,29.95,WSW,243,0.0,6.0,59,0.00,,,0.00,weatherlink.com 1.10,2014-01-26 02:32:00,
2014-01-25 20:47:00,7.3,-4.0,29.94,WSW,243,0.0,5.0,60,0.00,,,0.00,weatherlink.com 1.10,2014-01-26 02:47:00,
2014-01-25 21:02:00,7.1,-4.0,29.93,WSW,243,2.0,4.0,60,0.00,,,0.00,weatherlink.com 1.10,2014-01-26 03:02:00,
2014-01-25 21:17:00,7.2,-4.0,29.93,SW,236,6.0,7.0,60,0.00,,,0.00,weatherlink.com 1.10,2014-01-26 03:17:00,
2014-01-25 21:32:00,7.2,-4.0,29.92,SW,229,1.0,8.0,61,0.00,,,0.00,weatherlink.com 1.10,2014-01-26 03:32:00,
2014-01-25 21:47:00,7.5,-4.0,29.91,SW,226,5.0,7.0,60,0.00,,,0.00,weatherlink.com 1.10,2014-01-26 03:47:00,
2014-01-25 22:03:00,7.2,-4.0,29.90,South,182,7.0,10.0,60,0.00,,,0.00,weatherlink.com 1.10,2014-01-26 04:03:00,
2014-01-25 22:18:00,6.9,-3.0,29.87,SE,125,11.0,14.0,64,0.00,,,0.00,weatherlink.com 1.10,2014-01-26 04:18:00,
2014-01-25 22:33:00,6.8,-3.0,29.86,SE,134,10.0,14.0,65,0.00,,,0.00,weatherlink.com 1.10,2014-01-26 04:33:00,
2014-01-25 22:48:00,6.7,-3.0,29.84,SE,132,7.0,14.0,65,0.00,,,0.00,weatherlink.com 1.10,2014-01-26 04:48:00,
2014-01-25 23:03:00,6.8,-2.0,29.82,SSE,151,13.0,14.0,67,0.00,,,0.00,weatherlink.com 1.10,2014-01-26 05:03:00,
2014-01-25 23:18:00,6.7,-2.0,29.81,SE,126,8.0,16.0,69,0.00,,,0.00,weatherlink.com 1.10,2014-01-26 05:18:00,
2014-01-25 23:33:00,6.6,0.0,29.79,SE,142,10.0,14.0,75,0.00,,,0.00,weatherlink.com 1.10,2014-01-26 05:33:00,
2014-01-25 23:48:00,6.2,1.0,29.77,SE,132,6.0,12.0,80,0.00,,,0.00,weatherlink.com 1.10,2014-01-26 05:48:00,